Strathclair, Canada
Current Conditions -  °F | °C
As of 7:00 PM on Thursday 27 Nov 2014 (Local Time) from CYBR Reporting Station
Light Snow Light Snow  
Wind Chill: -3°   Ceiling: 11000
Heat Index:   Visibility: 8mi
Dew Point:   Wind: 7mph
Humidity: 85%   Direction: 110°ESE
Pressure: 30.08"   Gusts: NA
Location:  50.4°N, 100.4°W
Report Text: CYBR 280100Z 11006KT 8SM -SN SCT006 BKN110 M13/M15 A3008 RMK SF3AC4 SLP233
Loading
Personal Weather Stations






























Interactive Weather Map New forecast layout! Learn more

10-Day Weather Forecast

Advertisements
Track Severe Weather on mobile